Latest Weather Observations for Cape Wessel

IDD60801

Issued at 9:01 am CST Saturday 21 January 2017 (issued every 30 minutes, with the page automatically refreshed every 10 minutes)

About weather observations | Map of weather stations | Latest weather observations for NT | Other Formats
Station Details ID: 200786 Name: CAPE WESSEL Lat: -11.00 Lon: 136.76 Height: 18.0 m
Data from the previous 72 hours. | See also: Recent months at Cape Wessel
Date/Time
CST
Temp
°C
App
Temp
°C
Dew
Point
°C
Rel
Hum
%
Delta-T
°C
Wind Press
QNH
hPa
Press
MSL
hPa
Rain since
9am
mm
Dir  Spd
km/h
Gust
km/h
Spd
kts
Gust
kts
21/09:00am 27.4 33.0 26.3 94 0.8 E 9 11 5 6 1010.5 1010.4 22.2
21/08:30am 26.9 32.1 25.7 93 0.8 S 9 11 5 6 1010.6 1010.5 22.2
21/08:00am 26.5 31.1 24.7 90 1.3 WSW 9 11 5 6 1010.7 1010.6 22.2
21/07:30am 26.5 30.1 24.3 88 1.5 WSW 13 15 7 8 1010.8 1010.7 22.0
21/07:00am 26.9 28.8 23.8 83 2.1 W 20 24 11 13 1010.7 1010.6 21.8
21/06:30am 27.0 29.0 24.6 87 1.7 WNW 22 28 12 15 1010.5 1010.4 21.8
21/06:00am 26.7 28.2 24.4 87 1.6 W 24 28 13 15 1010.3 1010.2 21.8
21/05:30am 26.2 28.9 25.0 93 0.8 W 20 24 11 13 1010.0 1009.9 21.8
21/05:00am 26.2 30.6 26.2 100 0.0 WNW 15 19 8 10 1009.6 1009.5 21.8
21/04:30am 25.8 30.7 25.8 100 0.0 WSW 11 13 6 7 1009.4 1009.3 21.8
21/04:00am 25.7 30.9 25.7 100 0.0 SW 9 11 5 6 1009.4 1009.3 21.6
21/03:30am 25.5 29.0 25.5 100 0.0 WSW 17 20 9 11 1009.3 1009.2 21.4
21/03:00am 25.4 28.9 25.4 100 0.0 SW 17 24 9 13 1009.2 1009.1 20.8
21/02:30am 26.0 28.5 26.0 100 0.0 W 24 30 13 16 1008.9 1008.8 19.6
21/02:00am 25.9 28.8 25.9 100 0.0 W 22 28 12 15 1009.2 1009.1 17.4
21/01:30am 25.7 28.4 25.7 100 0.0 W 22 28 12 15 1009.7 1009.6 16.4
21/01:00am 25.6 28.3 25.6 100 0.0 W 22 26 12 14 1009.8 1009.7 15.2
21/12:30am 25.3 25.9 25.3 100 0.0 W 32 39 17 21 1009.8 1009.7 14.6
21/12:13am 24.1 21.5 23.6 97 0.3 WNW 43 57 23 31 1010.3 1010.2 13.6
21/12:00am 24.8 20.6 24.3 97 0.3 W 54 67 29 36 1010.3 1010.2 12.0
 
Date/Time
CST
Temp
°C
App
Temp
°C
Dew
Point
°C
Rel
Hum
%
Delta-T
°C
Wind Press
QNH
hPa
Press
MSL
hPa
Rain since
9am
mm
Dir  Spd
km/h
Gust
km/h
Spd
kts
Gust
kts
20/11:55pm 25.2 23.3 24.7 97 0.3 W 43 67 23 36 1010.3 1010.2 11.8
20/11:51pm 26.0 26.8 26.0 100 0.0 W 33 54 18 29 1010.5 1010.4 11.2
20/11:30pm 25.9 25.7 25.6 98 0.2 W 37 46 20 25 1010.2 1010.1 10.4
20/11:07pm 25.9 29.7 25.9 100 0.0 SW 17 41 9 22 1010.4 1010.3 9.8
20/11:00pm 25.0 28.7 24.5 97 0.3 SW 13 19 7 10 1010.1 1010.0 9.8
20/10:30pm 25.2 25.9 24.9 98 0.2 W 30 39 16 21 1010.4 1010.3 9.6
20/10:04pm 26.0 28.7 25.0 94 0.7 WSW 20 44 11 24 1010.1 1010.0 9.4
20/10:00pm 25.7 28.7 24.7 94 0.7 WSW 17 22 9 12 1010.0 1009.9 9.4
20/09:30pm 26.6 25.0 23.9 85 1.9 W 39 48 21 26 1010.1 1010.0 8.6
20/09:22pm 27.5 28.0 23.9 81 2.5 WNW 28 48 15 26 1009.9 1009.8 8.6
20/09:00pm 28.2 29.9 24.6 81 2.5 NW 24 30 13 16 1009.5 1009.4 8.6
20/08:30pm 28.0 29.5 24.4 81 2.5 WNW 24 32 13 17 1009.0 1008.9 8.6
20/08:00pm 27.9 30.0 24.7 83 2.2 WNW 22 28 12 15 1008.4 1008.3 8.6
20/07:30pm 27.9 29.7 24.9 84 2.1 WNW 24 32 13 17 1008.1 1008.0 8.6
20/07:00pm 27.9 29.5 25.1 85 2.0 WNW 26 30 14 16 1007.7 1007.6 8.6
20/06:30pm 28.4 29.8 25.4 84 2.1 WNW 28 35 15 19 1007.0 1006.9 8.6
20/06:00pm 29.0 30.5 25.0 79 2.8 NW 26 30 14 16 1006.7 1006.6 8.6
20/05:30pm 29.4 31.4 25.2 78 3.0 NW 24 32 13 17 1006.5 1006.4 8.6
20/05:00pm 28.7 31.7 25.3 82 2.4 NW 19 28 10 15 1006.3 1006.2 8.6
20/04:30pm 28.4 31.4 25.2 83 2.3 NW 19 22 10 12 1006.2 1006.1 8.6
20/04:00pm 27.8 31.2 25.2 86 1.8 NW 17 22 9 12 1006.5 1006.4 8.6
20/03:30pm 26.8 30.4 25.0 90 1.3 WNW 15 20 8 11 1006.9 1006.8 8.6
20/03:00pm 26.2 30.3 25.7 97 0.4 WNW 15 19 8 10 1007.2 1007.1 8.6
20/02:30pm 25.6 29.8 25.4 99 0.1 WSW 13 17 7 9 1007.7 1007.6 8.6
20/02:00pm 26.6 25.9 24.1 86 1.7 W 35 48 19 26 1007.6 1007.5 4.6
20/01:58pm 26.8 26.6 24.1 85 1.9 W 32 46 17 25 1007.6 1007.5 4.6
20/01:30pm 27.6 30.5 26.0 91 1.1 NW 22 30 12 16 1007.8 1007.7 4.6
20/01:00pm 27.5 31.2 26.6 95 0.6 WSW 20 30 11 16 1008.2 1008.1 4.4
20/12:30pm 29.6 32.1 24.7 75 3.4 NNW 20 26 11 14 1008.1 1008.0 0.0
20/12:00pm 30.0 32.0 24.6 73 3.8 NNW 22 28 12 15 1008.4 1008.3 0.0
20/11:30am 30.9 33.6 24.8 70 4.3 NNW 19 24 10 13 1008.9 1008.8 0.0
20/11:00am 30.2 33.2 25.3 75 3.5 NNW 19 24 10 13 1009.2 1009.1 0.0
20/10:30am 30.3 33.2 25.1 73 3.7 NNW 19 22 10 12 1009.5 1009.4 0.0
20/10:00am 30.3 32.6 25.1 73 3.7 NNW 22 26 12 14 1009.5 1009.4 0.0
20/09:30am 31.0 33.7 25.1 71 4.2 NNW 20 24 11 13 1009.4 1009.3 0.0
20/09:00am 29.8 31.9 24.7 74 3.6 NNW 22 28 12 15 1009.4 1009.3 7.4
20/08:30am 29.0 30.1 24.3 76 3.3 NNW 26 32 14 17 1009.3 1009.2 7.4
20/08:00am 29.3 31.8 25.3 79 2.8 NW 22 32 12 17 1008.9 1008.8 7.4
20/07:30am 29.2 32.2 25.6 81 2.5 NW 20 26 11 14 1008.3 1008.2 7.4
20/07:00am 27.6 29.0 23.6 79 2.7 W 22 28 12 15 1008.5 1008.4 7.4
20/06:30am 28.1 29.7 24.5 81 2.5 WNW 24 30 13 16 1008.4 1008.3 7.4
20/06:00am 28.0 29.8 24.8 83 2.2 NW 24 30 13 16 1008.2 1008.1 7.4
20/05:30am 27.8 30.0 24.2 81 2.5 WNW 20 26 11 14 1007.7 1007.6 7.4
20/05:00am 27.9 29.5 24.5 82 2.4 WNW 24 32 13 17 1007.7 1007.6 7.4
20/04:30am 27.9 29.5 24.5 82 2.4 WNW 24 28 13 15 1007.7 1007.6 7.4
20/04:00am 28.0 29.7 24.6 82 2.4 WNW 24 30 13 16 1007.7 1007.6 7.4
20/03:30am 28.0 29.7 24.6 82 2.4 WNW 24 30 13 16 1007.6 1007.5 7.4
20/03:00am 27.8 29.7 24.4 82 2.4 WNW 22 28 12 15 1007.8 1007.7 7.4
20/02:30am 27.8 29.3 24.4 82 2.4 WNW 24 32 13 17 1008.0 1007.9 7.4
20/02:00am 27.7 29.0 24.1 81 2.5 WNW 24 30 13 16 1008.1 1008.0 7.4
20/01:30am 27.5 29.4 24.4 83 2.2 WNW 22 26 12 14 1008.1 1008.0 7.4
20/01:00am 27.1 30.1 24.7 87 1.7 NW 17 20 9 11 1008.3 1008.2 7.4
20/12:30am 27.2 30.2 24.7 86 1.7 NW 17 26 9 14 1008.5 1008.4 7.4
20/12:00am 26.9 29.8 23.8 83 2.1 NW 15 19 8 10 1009.1 1009.0 7.4
 
Date/Time
CST
Temp
°C
App
Temp
°C
Dew
Point
°C
Rel
Hum
%
Delta-T
°C
Wind Press
QNH
hPa
Press
MSL
hPa
Rain since
9am
mm
Dir  Spd
km/h
Gust
km/h
Spd
kts
Gust
kts
19/11:30pm 27.0 30.6 24.3 85 1.9 NW 13 15 7 8 1009.6 1009.5 7.4
19/11:00pm 26.9 30.5 24.4 86 1.7 NW 13 17 7 9 1009.8 1009.7 7.4
19/10:30pm 26.9 30.6 24.5 87 1.7 NNW 13 15 7 8 1009.6 1009.5 7.4
19/10:00pm 26.8 30.9 24.6 88 1.5 NNW 11 13 6 7 1009.8 1009.7 7.4
19/09:30pm 26.8 32.2 25.2 91 1.1 N 6 9 3 5 1009.6 1009.5 7.4
19/09:00pm 26.7 31.6 25.3 92 1.0 N 9 13 5 7 1009.3 1009.2 7.4
19/08:30pm 26.6 31.1 25.2 92 1.0 NNW 11 15 6 8 1009.1 1009.0 7.4
19/08:00pm 26.6 31.1 25.2 92 1.0 NNW 11 17 6 9 1009.3 1009.2 7.4
19/07:30pm 26.3 30.0 24.5 90 1.2 NW 13 15 7 8 1009.3 1009.2 7.4
19/07:00pm 26.5 30.5 25.1 92 1.0 NNW 13 17 7 9 1008.9 1008.8 7.4
19/06:30pm 26.3 30.6 24.2 88 1.5 NNW 9 13 5 7 1008.8 1008.7 7.2
19/06:00pm 26.7 30.7 25.1 91 1.1 NW 13 17 7 9 1008.5 1008.4 7.2
19/05:30pm 26.6 31.1 25.2 92 1.0 NNW 11 15 6 8 1008.3 1008.2 7.2
19/05:00pm 26.9 30.3 25.3 91 1.1 NNW 17 20 9 11 1008.2 1008.1 7.0
19/04:30pm 26.6 29.3 25.0 91 1.1 WNW 20 28 11 15 1008.2 1008.1 7.0
19/04:00pm 26.6 29.1 25.4 93 0.8 W 22 28 12 15 1008.1 1008.0 6.6
19/03:30pm 28.7 28.2 23.6 74 3.5 WNW 32 43 17 23 1008.1 1008.0 0.0
19/03:00pm 31.9 34.2 24.5 65 5.2 NNW 20 28 11 15 1008.5 1008.4 0.0
19/02:30pm 33.1 36.0 25.4 64 5.5 NW 20 26 11 14 1008.6 1008.5 0.0
19/02:00pm 32.8 35.5 25.1 64 5.4 NW 20 26 11 14 1008.9 1008.8 0.0
19/01:30pm 32.7 35.5 25.0 64 5.4 NNW 19 22 10 12 1009.5 1009.4 0.0
19/01:00pm 32.2 34.6 24.3 63 5.5 NNW 19 22 10 12 1009.7 1009.6 0.0
19/12:30pm 32.1 34.6 24.4 63 5.4 NNW 19 22 10 12 1010.0 1009.9 0.0
19/12:00pm 32.4 35.2 25.0 65 5.2 NW 19 24 10 13 1010.4 1010.3 0.0
19/11:30am 31.0 33.9 24.4 68 4.6 NW 17 22 9 12 1010.6 1010.5 0.0
19/11:00am 32.5 36.7 25.3 66 5.1 NW 13 17 7 9 1010.7 1010.6 0.0
19/10:30am 31.9 35.0 24.2 63 5.4 NW 15 17 8 9 1011.0 1010.9 0.0
19/10:00am 31.4 36.1 25.0 69 4.5 NW 9 13 5 7 1011.2 1011.1 0.0
19/09:30am 30.4 34.6 24.1 69 4.4 N 9 11 5 6 1011.5 1011.4 0.0
19/09:00am 30.5 35.6 24.9 72 3.9 ENE 7 11 4 6 1011.5 1011.4 0.8
19/08:30am 28.6 33.6 24.8 80 2.7 ESE 7 11 4 6 1011.4 1011.3 0.8
19/08:00am 27.8 31.8 24.4 82 2.4 ESE 11 17 6 9 1011.5 1011.4 0.8
19/07:30am 27.7 34.0 24.7 84 2.1 CALM 0 0 0 0 1011.4 1011.3 0.8
19/07:00am 27.4 32.2 24.1 82 2.3 NNE 6 11 3 6 1011.1 1011.0 0.8
19/06:30am 27.5 30.9 24.1 82 2.4 W 13 15 7 8 1010.7 1010.6 0.8
19/06:00am 27.6 31.6 24.4 83 2.2 W 11 15 6 8 1010.6 1010.5 0.8
19/05:30am 27.6 31.1 24.2 82 2.4 WSW 13 17 7 9 1010.1 1010.0 0.8
19/05:00am 27.7 31.4 24.5 83 2.2 W 13 15 7 8 1009.9 1009.8 0.8
19/04:30am 27.6 31.5 24.2 82 2.4 W 11 15 6 8 1009.6 1009.5 0.8
19/04:00am 27.7 31.1 24.1 81 2.5 W 13 15 7 8 1009.6 1009.5 0.8
19/03:30am 27.9 31.2 24.5 82 2.4 W 15 17 8 9 1009.7 1009.6 0.8
19/03:00am 27.7 31.2 24.9 85 2.0 W 15 17 8 9 1009.6 1009.5 0.8
19/02:30am 27.4 30.5 24.8 86 1.8 WNW 17 19 9 10 1009.8 1009.7 0.8
19/02:00am 27.5 30.5 24.7 85 1.9 WNW 17 20 9 11 1010.2 1010.1 0.8
19/01:30am 27.5 30.0 24.4 83 2.2 WNW 19 22 10 12 1010.4 1010.3 0.8
19/01:00am 27.6 30.3 24.8 85 2.0 WNW 19 26 10 14 1010.8 1010.7 0.8
19/12:30am 27.6 29.8 24.2 82 2.4 WNW 20 24 11 13 1011.1 1011.0 0.8
19/12:00am 27.5 29.7 23.9 81 2.5 WNW 19 22 10 12 1011.4 1011.3 0.8
 
Date/Time
CST
Temp
°C
App
Temp
°C
Dew
Point
°C
Rel
Hum
%
Delta-T
°C
Wind Press
QNH
hPa
Press
MSL
hPa
Rain since
9am
mm
Dir  Spd
km/h
Gust
km/h
Spd
kts
Gust
kts
18/11:30pm 27.4 29.7 24.1 82 2.3 WNW 19 22 10 12 1011.4 1011.3 0.8
18/11:00pm 27.5 29.6 24.7 85 1.9 WNW 22 26 12 14 1011.3 1011.2 0.8
18/10:30pm 27.5 30.2 24.1 82 2.4 WNW 17 19 9 10 1011.3 1011.2 0.8
18/10:00pm 27.3 30.5 23.7 81 2.5 WNW 13 15 7 8 1011.1 1011.0 0.8
18/09:30pm 27.3 30.4 23.5 80 2.6 WNW 13 17 7 9 1011.2 1011.1 0.8
18/09:00pm 27.1 30.2 23.6 81 2.4 NW 13 17 7 9 1011.3 1011.2 0.8
18/08:30pm 27.0 30.4 23.3 80 2.5 NW 11 15 6 8 1011.1 1011.0 0.8
18/08:00pm 27.1 30.8 23.3 80 2.6 WNW 9 13 5 7 1010.9 1010.8 0.8
18/07:30pm 27.2 30.5 23.2 79 2.7 WNW 11 13 6 7 1010.8 1010.7 0.8
18/07:00pm 27.4 30.7 23.2 78 2.9 WNW 11 17 6 9 1010.8 1010.7 0.8
18/06:30pm 27.7 30.8 23.5 78 2.9 WNW 13 17 7 9 1010.5 1010.4 0.8
18/06:00pm 27.9 31.0 23.5 77 3.0 WNW 13 15 7 8 1010.1 1010.0 0.8
18/05:30pm 28.4 32.0 23.8 76 3.2 NW 11 15 6 8 1009.6 1009.5 0.8
18/05:00pm 29.1 32.5 24.0 74 3.5 W 13 17 7 9 1009.4 1009.3 0.8
18/04:30pm 29.0 32.4 24.1 75 3.4 WNW 13 15 7 8 1009.3 1009.2 0.8
18/04:00pm 29.5 32.6 24.1 72 3.7 WNW 15 17 8 9 1009.4 1009.3 0.8
18/03:30pm 30.4 33.5 24.8 72 3.9 NW 17 20 9 11 1009.5 1009.4 0.8
18/03:00pm 30.2 32.9 25.0 73 3.7 NW 20 26 11 14 1009.6 1009.5 0.8
18/02:30pm 28.8 30.3 24.4 77 3.1 NW 24 32 13 17 1009.8 1009.7 0.8
18/02:00pm 28.5 30.0 24.9 81 2.5 NW 26 35 14 19 1010.1 1010.0 0.8
18/01:30pm 29.3 31.3 25.1 78 3.0 NNW 24 32 13 17 1010.8 1010.7 0.8
18/01:00pm 29.1 30.9 24.2 75 3.4 NNW 22 26 12 14 1011.0 1010.9 0.8
18/12:30pm 29.4 31.6 24.9 77 3.2 N 22 28 12 15 1011.4 1011.3 0.8
18/12:00pm 28.8 30.7 25.0 80 2.7 N 24 32 13 17 1011.9 1011.8 0.8
18/11:30am 28.1 30.9 24.9 83 2.2 N 19 22 10 12 1012.0 1011.9 0.8
18/11:00am 27.9 31.7 25.9 89 1.4 N 17 22 9 12 1012.5 1012.4 0.8
18/10:30am 26.6 30.3 25.7 95 0.6 NNW 17 20 9 11 1012.5 1012.4 0.8
18/10:00am 26.5 29.2 24.7 90 1.3 N 19 24 10 13 1012.8 1012.7 0.2
18/09:30am 26.9 29.6 24.7 88 1.5 N 19 22 10 12 1012.5 1012.4 0.0

Other Formats:

Comma delimited format used in spreadsheet applications
http://www.bom.gov.au/fwo/IDD60801/IDD60801.94147.axf

JavaScript Object Notation format (JSON) in row-major order
http://www.bom.gov.au/fwo/IDD60801/IDD60801.94147.json